Time;durP1;ratioP1;P1;durP2;ratioP2;P2;SDS_P1;SDS_P2;PMS_P1;PMS_P2;Temp;Humidity;BMP_temperature;BMP_pressure;BME280_temperature;BME280_humidity;BME280_pressure;Samples;Min_cycle;Max_cycle;Signal;HPM_P1;HPM_P2
2021/07/01 00:02:15;;;;;;;;;15.00;14.00;;;;;-147.17;100.00;59696.56;4967623;28;51097;-60
2021/07/01 00:04:40;;;;;;;;;16.00;14.33;;;;;-147.17;100.00;59696.56;4988666;28;51086;-60
2021/07/01 00:07:05;;;;;;;;;13.67;13.67;;;;;-147.17;100.00;59696.56;4982500;28;51392;-60
2021/07/01 00:09:31;;;;;;;;;11.00;11.00;;;;;-147.17;100.00;59696.56;4972983;28;52264;-59
2021/07/01 00:11:56;;;;;;;;;12.33;11.67;;;;;-147.17;100.00;59696.56;4989301;28;51077;-60
2021/07/01 00:14:22;;;;;;;;;12.00;11.00;;;;;-147.17;100.00;59696.56;4986617;28;51309;-60
2021/07/01 00:16:51;;;;;;;;;12.00;11.67;;;;;-147.17;100.00;59696.56;4973652;28;50956;-60
2021/07/01 00:19:17;;;;;;;;;15.33;14.33;;;;;-147.17;100.00;59696.56;4968507;28;51714;-60
2021/07/01 00:21:43;;;;;;;;;12.67;12.33;;;;;-147.17;100.00;59696.56;4989545;28;51195;-60
2021/07/01 00:24:08;;;;;;;;;12.00;11.33;;;;;-147.17;100.00;59696.56;4973189;28;51329;-60
2021/07/01 00:26:33;;;;;;;;;12.33;12.00;;;;;-147.17;100.00;59696.56;4973266;28;50929;-59
2021/07/01 00:28:59;;;;;;;;;14.33;13.33;;;;;-147.17;100.00;59696.56;4982260;28;52291;-60
2021/07/01 00:31:24;;;;;;;;;16.00;15.67;;;;;-147.17;100.00;59696.56;4991416;28;51081;-59
2021/07/01 00:33:50;;;;;;;;;14.00;14.00;;;;;-147.17;100.00;59696.56;4973928;28;51131;-59
2021/07/01 00:36:15;;;;;;;;;12.00;11.67;;;;;-147.17;100.00;59696.56;4988271;28;51002;-60
2021/07/01 00:38:40;;;;;;;;;12.67;12.33;;;;;-147.17;100.00;59696.56;4992445;28;52283;-59
2021/07/01 00:41:06;;;;;;;;;12.67;12.67;;;;;-147.17;100.00;59696.56;4981631;28;51240;-59
2021/07/01 00:43:31;;;;;;;;;12.00;11.67;;;;;-147.17;100.00;59696.56;4986766;28;51149;-60
2021/07/01 00:45:56;;;;;;;;;11.33;11.33;;;;;-147.17;100.00;59696.56;4992685;28;51275;-60
2021/07/01 00:48:22;;;;;;;;;12.00;11.00;;;;;-147.17;100.00;59696.56;4989704;28;52168;-59
2021/07/01 00:50:50;;;;;;;;;14.00;14.00;;;;;-147.17;100.00;59696.56;4991655;28;50969;-60
2021/07/01 00:53:15;;;;;;;;;12.00;11.33;;;;;-147.17;100.00;59696.56;4973519;28;51224;-59
2021/07/01 00:55:40;;;;;;;;;15.50;14.50;;;;;-147.17;100.00;59696.56;4991331;28;51117;-60
2021/07/01 00:58:06;;;;;;;;;16.25;13.00;;;;;-147.17;100.00;59696.56;4967993;28;52791;-60
2021/07/01 01:03:09;;;;;;;;;14.00;13.00;;;;;-147.17;100.00;59696.56;4992356;28;51031;-59
2021/07/01 01:05:34;;;;;;;;;14.00;13.00;;;;;-147.17;100.00;59696.56;4991451;28;51079;-60
2021/07/01 01:08:00;;;;;;;;;10.67;10.00;;;;;-147.17;100.00;59696.56;4990045;28;51783;-60
2021/07/01 01:10:26;;;;;;;;;9.67;9.67;;;;;-147.17;100.00;59696.56;4987696;28;51114;-60
2021/07/01 01:12:51;;;;;;;;;11.00;10.00;;;;;-147.17;100.00;59696.56;4955188;28;51117;-60
2021/07/01 01:15:16;;;;;;;;;11.67;11.67;;;;;-147.17;100.00;59696.56;4972740;28;51176;-59
2021/07/01 01:17:44;;;;;;;;;13.00;12.00;;;;;-147.17;100.00;59696.56;4972346;28;52227;-60
2021/07/01 01:20:10;;;;;;;;;13.33;12.67;;;;;-147.17;100.00;59696.56;4973731;28;51163;-60
2021/07/01 01:22:35;;;;;;;;;13.25;13.25;;;;;-147.17;100.00;59696.56;4976286;28;51008;-60
2021/07/01 01:25:00;;;;;;;;;13.00;13.00;;;;;-147.17;100.00;59696.56;4990360;28;51060;-60
2021/07/01 01:27:26;;;;;;;;;13.67;13.00;;;;;-147.17;100.00;59696.56;4978122;28;52102;-59
2021/07/01 01:29:52;;;;;;;;;11.00;11.00;;;;;-147.17;100.00;59696.56;4981326;28;51402;-60
2021/07/01 01:32:17;;;;;;;;;11.33;11.00;;;;;-147.17;100.00;59696.56;4954683;28;51259;-60
2021/07/01 01:34:42;;;;;;;;;13.00;12.33;;;;;-147.17;100.00;59696.56;4988481;28;51208;-59
2021/07/01 01:37:09;;;;;;;;;10.33;10.00;;;;;-147.17;100.00;59696.56;4990646;28;51748;-60
2021/07/01 01:39:34;;;;;;;;;12.33;11.33;;;;;-147.17;100.00;59696.56;4983389;28;51143;-60
2021/07/01 01:42:01;;;;;;;;;12.00;11.67;;;;;-147.17;100.00;59696.56;4991910;28;50989;-59
2021/07/01 01:44:26;;;;;;;;;13.67;12.00;;;;;-147.17;100.00;59696.56;4989409;28;51028;-59
2021/07/01 01:46:52;;;;;;;;;9.67;9.00;;;;;-147.17;100.00;59696.56;4978536;28;52084;-60
2021/07/01 01:49:20;;;;;;;;;13.00;12.33;;;;;-147.17;100.00;59696.56;4981636;28;50914;-59
2021/07/01 01:51:46;;;;;;;;;13.00;11.67;;;;;-147.17;100.00;59696.56;4991718;28;51241;-59
2021/07/01 01:54:11;;;;;;;;;14.67;14.33;;;;;-147.17;100.00;59696.56;4989981;28;51220;-59
2021/07/01 01:56:37;;;;;;;;;14.00;13.00;;;;;-147.17;100.00;59696.56;4980216;28;51995;-59
2021/07/01 01:59:04;;;;;;;;;16.00;13.67;;;;;-147.17;100.00;59696.56;4971640;28;51163;-60
2021/07/01 02:01:30;;;;;;;;;15.00;13.33;;;;;-147.17;100.00;59696.56;4971948;28;51156;-60
2021/07/01 02:03:55;;;;;;;;;14.00;13.00;;;;;-147.17;100.00;59696.56;4977786;28;51069;-61
2021/07/01 02:06:20;;;;;;;;;16.00;14.67;;;;;-147.17;100.00;59696.56;4971711;28;53046;-60
2021/07/01 02:08:46;;;;;;;;;13.33;13.33;;;;;-147.17;100.00;59696.56;4979184;28;50963;-59
2021/07/01 02:11:11;;;;;;;;;16.67;15.00;;;;;-147.17;100.00;59696.56;4991407;28;51173;-61
2021/07/01 02:13:36;;;;;;;;;13.33;13.33;;;;;-147.17;100.00;59696.56;4990214;28;52410;-60
2021/07/01 02:16:02;;;;;;;;;17.33;15.00;;;;;-147.17;100.00;59696.56;4991617;28;51962;-60
2021/07/01 02:18:27;;;;;;;;;14.33;12.67;;;;;-147.17;100.00;59696.56;4969943;28;51101;-60
2021/07/01 02:20:52;;;;;;;;;14.67;14.00;;;;;-147.17;100.00;59696.56;4972997;28;50928;-59
2021/07/01 02:23:18;;;;;;;;;15.33;15.00;;;;;-147.17;100.00;59696.56;4975222;28;50920;-59
2021/07/01 02:25:43;;;;;;;;;16.00;14.33;;;;;-147.17;100.00;59696.56;4974781;28;51117;-60
2021/07/01 02:28:08;;;;;;;;;14.33;12.33;;;;;-147.17;100.00;59696.56;4985834;28;51010;-59
2021/07/01 02:30:34;;;;;;;;;14.67;13.00;;;;;-147.17;100.00;59696.56;4975226;28;50923;-60
2021/07/01 02:32:59;;;;;;;;;13.33;12.67;;;;;-147.17;100.00;59696.56;4957397;28;51314;-60
2021/07/01 02:35:25;;;;;;;;;15.00;15.00;;;;;-147.17;100.00;59696.56;4975080;28;51843;-60
2021/07/01 02:37:50;;;;;;;;;16.33;16.33;;;;;-147.17;100.00;59696.56;5000935;28;51195;-60
2021/07/01 02:40:16;;;;;;;;;16.00;15.33;;;;;-147.17;100.00;59696.56;4993747;28;51029;-59
2021/07/01 02:42:42;;;;;;;;;16.00;13.00;;;;;-147.17;100.00;59696.56;4993747;28;51050;-61
2021/07/01 02:45:10;;;;;;;;;18.67;17.33;;;;;-147.17;100.00;59696.56;4994067;28;52190;-59
2021/07/01 02:47:36;;;;;;;;;17.75;16.00;;;;;-147.17;100.00;59696.56;4977215;28;51054;-59
2021/07/01 02:50:02;;;;;;;;;15.00;14.00;;;;;-147.17;100.00;59696.56;4990514;28;51263;-59
2021/07/01 02:52:27;;;;;;;;;16.50;15.75;;;;;-147.17;100.00;59696.56;4994684;28;50897;-59
2021/07/01 02:54:53;;;;;;;;;16.67;16.00;;;;;-147.17;100.00;59696.56;4993403;28;55985;-59
2021/07/01 02:57:18;;;;;;;;;17.00;16.33;;;;;-147.17;100.00;59696.56;4993680;28;51221;-62
2021/07/01 02:59:43;;;;;;;;;16.00;15.33;;;;;-147.17;100.00;59696.56;4992208;28;51782;-60
2021/07/01 03:02:09;;;;;;;;;14.67;14.67;;;;;-147.17;100.00;59696.56;4965801;28;51267;-61
2021/07/01 03:04:34;;;;;;;;;15.33;14.33;;;;;-147.17;100.00;59696.56;4984289;28;52324;-60
2021/07/01 03:06:59;;;;;;;;;18.67;17.67;;;;;-147.17;100.00;59696.56;4984983;28;50990;-59
2021/07/01 03:09:25;;;;;;;;;17.25;16.25;;;;;-147.17;100.00;59696.56;4988500;28;51743;-60
2021/07/01 03:11:50;;;;;;;;;14.67;14.67;;;;;-147.17;100.00;59696.56;4983123;28;51133;-60
2021/07/01 03:14:16;;;;;;;;;15.00;14.00;;;;;-147.17;100.00;59696.56;4980081;28;51970;-60
2021/07/01 03:16:41;;;;;;;;;16.00;15.00;;;;;-147.17;100.00;59696.56;4992782;28;51018;-58
2021/07/01 03:19:06;;;;;;;;;13.67;12.33;;;;;-147.17;100.00;59696.56;4990737;28;51376;-61
2021/07/01 03:21:32;;;;;;;;;14.00;14.00;;;;;-147.17;100.00;59696.56;4965017;28;51365;-59
2021/07/01 03:23:57;;;;;;;;;15.00;14.67;;;;;-147.17;100.00;59696.56;4957094;28;53777;-59
2021/07/01 03:26:23;;;;;;;;;14.50;13.75;;;;;-147.17;100.00;59696.56;4983308;28;51089;-60
2021/07/01 03:28:48;;;;;;;;;15.25;14.00;;;;;-147.17;100.00;59696.56;4982614;28;51017;-60
2021/07/01 03:31:14;;;;;;;;;15.00;14.00;;;;;-147.17;100.00;59696.56;4993903;28;51429;-60
2021/07/01 03:33:40;;;;;;;;;19.00;16.33;;;;;-147.17;100.00;59696.56;4983081;28;52013;-60
2021/07/01 03:36:06;;;;;;;;;16.67;15.33;;;;;-147.17;100.00;59696.56;4974942;28;51034;-59
2021/07/01 03:38:32;;;;;;;;;15.67;15.00;;;;;-147.17;100.00;59696.56;4981978;28;51072;-60
2021/07/01 03:40:58;;;;;;;;;16.67;16.67;;;;;-147.17;100.00;59696.56;4993251;28;50933;-60
2021/07/01 03:43:23;;;;;;;;;17.67;16.33;;;;;-147.17;100.00;59696.56;4993276;28;51751;-60
2021/07/01 03:45:49;;;;;;;;;14.00;14.00;;;;;-147.17;100.00;59696.56;4986715;28;51208;-59
2021/07/01 03:48:15;;;;;;;;;15.50;15.25;;;;;-147.17;100.00;59696.56;4984363;28;51138;-59
2021/07/01 03:50:41;;;;;;;;;14.50;14.00;;;;;-147.17;100.00;59696.56;4993424;28;51284;-61
2021/07/01 03:53:07;;;;;;;;;16.25;16.00;;;;;-147.17;100.00;59696.56;4992251;28;51136;-60
2021/07/01 03:55:32;;;;;;;;;16.25;15.50;;;;;-147.17;100.00;59696.56;4974447;28;51109;-60
2021/07/01 03:57:58;;;;;;;;;14.75;14.25;;;;;-147.17;100.00;59696.56;4973614;28;51143;-61
2021/07/01 04:00:24;;;;;;;;;18.00;16.75;;;;;-147.17;100.00;59696.56;4974117;28;51714;-60
2021/07/01 04:02:49;;;;;;;;;17.00;16.50;;;;;-147.17;100.00;59696.56;4973701;28;51038;-60
2021/07/01 04:05:15;;;;;;;;;19.75;17.00;;;;;-147.17;100.00;59696.56;4979504;28;51014;-60
2021/07/01 04:07:41;;;;;;;;;18.25;15.50;;;;;-147.17;100.00;59696.56;4990325;28;51121;-60
2021/07/01 04:10:11;;;;;;;;;15.33;15.00;;;;;-147.17;100.00;59696.56;4991970;28;51437;-59
2021/07/01 04:12:37;;;;;;;;;16.75;15.75;;;;;-147.17;100.00;59696.56;4958413;28;51224;-60
2021/07/01 04:15:04;;;;;;;;;18.25;16.50;;;;;-147.17;100.00;59696.56;4980116;28;51081;-59
2021/07/01 04:17:29;;;;;;;;;15.33;14.67;;;;;-147.17;100.00;59696.56;4967500;28;51280;-59
2021/07/01 04:19:54;;;;;;;;;18.00;18.00;;;;;-147.17;100.00;59696.56;4992215;28;50981;-60
2021/07/01 04:22:20;;;;;;;;;18.00;16.00;;;;;-147.17;100.00;59696.56;4988472;28;51956;-59
2021/07/01 04:24:45;;;;;;;;;16.67;16.00;;;;;-147.17;100.00;59696.56;4973068;28;51152;-60
2021/07/01 04:27:10;;;;;;;;;19.00;17.50;;;;;-147.17;100.00;59696.56;4973477;28;51703;-60
2021/07/01 04:29:36;;;;;;;;;22.50;17.75;;;;;-147.17;100.00;59696.56;4988305;28;50935;-60
2021/07/01 04:32:02;;;;;;;;;20.50;18.00;;;;;-147.17;100.00;59696.56;4992360;28;52111;-60
2021/07/01 04:34:27;;;;;;;;;17.00;14.75;;;;;-147.17;100.00;59696.56;4975137;28;51076;-60
2021/07/01 04:36:53;;;;;;;;;18.25;16.75;;;;;-147.17;100.00;59696.56;4991807;28;51257;-60
2021/07/01 04:39:18;;;;;;;;;16.75;15.00;;;;;-147.17;100.00;59696.56;4986390;28;51113;-59
2021/07/01 04:41:44;;;;;;;;;16.75;16.25;;;;;-147.17;100.00;59696.56;4973088;28;52152;-59
2021/07/01 04:44:09;;;;;;;;;21.00;19.50;;;;;-147.17;100.00;59696.56;4986479;28;50891;-60
2021/07/01 04:46:34;;;;;;;;;24.75;23.00;;;;;-147.17;100.00;59696.56;4992454;28;51024;-59
2021/07/01 04:49:00;;;;;;;;;20.00;18.50;;;;;-147.17;100.00;59696.56;4990483;28;51343;-59
2021/07/01 04:51:26;;;;;;;;;20.75;18.75;;;;;-147.17;100.00;59696.56;4992090;28;51623;-59
2021/07/01 04:53:52;;;;;;;;;22.75;19.00;;;;;-147.17;100.00;59696.56;4974686;28;51156;-59
2021/07/01 04:56:18;;;;;;;;;19.50;18.75;;;;;-147.17;100.00;59696.56;4992266;28;51188;-59
2021/07/01 04:58:43;;;;;;;;;13.75;13.25;;;;;-147.17;100.00;59696.56;4991584;28;51146;-60
2021/07/01 05:01:08;;;;;;;;;15.75;15.50;;;;;-147.17;100.00;59696.56;4988895;28;51937;-59
2021/07/01 05:03:34;;;;;;;;;20.00;20.00;;;;;-147.17;100.00;59696.56;4985997;28;51124;-59
2021/07/01 05:05:59;;;;;;;;;19.25;18.00;;;;;-147.17;100.00;59696.56;4973148;28;50999;-59
2021/07/01 05:08:25;;;;;;;;;24.00;21.50;;;;;-147.17;100.00;59696.56;4972492;28;51315;-60
2021/07/01 05:10:50;;;;;;;;;12.25;12.00;;;;;-147.17;100.00;59696.56;4972234;28;51972;-60
2021/07/01 05:13:15;;;;;;;;;23.00;22.75;;;;;-147.17;100.00;59696.56;4972540;28;50932;-60
2021/07/01 05:15:41;;;;;;;;;16.50;15.75;;;;;-147.17;100.00;59696.56;4958386;28;51034;-60
2021/07/01 05:18:06;;;;;;;;;19.50;18.75;;;;;-147.17;100.00;59696.56;4978292;28;51211;-60
2021/07/01 05:20:32;;;;;;;;;17.00;16.25;;;;;-147.17;100.00;59696.56;4990154;28;51084;-60
2021/07/01 05:22:57;;;;;;;;;22.00;20.00;;;;;-147.17;100.00;59696.56;4990404;28;50907;-60
2021/07/01 05:25:23;;;;;;;;;17.25;16.50;;;;;-147.17;100.00;59696.56;4989673;28;51130;-60
2021/07/01 05:27:48;;;;;;;;;18.50;16.00;;;;;-147.17;100.00;59696.56;4990982;28;50963;-60
2021/07/01 05:30:14;;;;;;;;;20.00;18.75;;;;;-147.17;100.00;59696.56;4992055;28;52002;-60
2021/07/01 05:32:39;;;;;;;;;18.50;17.75;;;;;-147.17;100.00;59696.56;4951247;28;51076;-60
2021/07/01 05:35:06;;;;;;;;;18.00;17.50;;;;;-147.17;100.00;59696.56;4966478;28;51012;-60
2021/07/01 05:37:31;;;;;;;;;22.25;20.25;;;;;-147.17;100.00;59696.56;4983982;28;50990;-60
2021/07/01 05:39:56;;;;;;;;;17.00;17.00;;;;;-147.17;100.00;59696.56;4971857;28;52004;-60
2021/07/01 05:42:22;;;;;;;;;20.75;20.50;;;;;-147.17;100.00;59696.56;4972070;28;51149;-60
2021/07/01 05:44:47;;;;;;;;;22.00;21.75;;;;;-147.17;100.00;59696.56;4972157;28;51032;-60
2021/07/01 05:47:13;;;;;;;;;22.50;21.00;;;;;-147.17;100.00;59696.56;4971939;28;51285;-60
2021/07/01 05:49:39;;;;;;;;;22.50;21.75;;;;;-147.17;100.00;59696.56;4977933;28;52031;-59
2021/07/01 05:52:06;;;;;;;;;21.50;19.75;;;;;-147.17;100.00;59696.56;4972361;28;51156;-59
2021/07/01 05:54:36;;;;;;;;;23.75;21.75;;;;;-147.17;100.00;59696.56;4954505;28;51155;-60
2021/07/01 05:57:03;;;;;;;;;22.75;20.00;;;;;-147.17;100.00;59696.56;4987609;28;51427;-60
2021/07/01 05:59:28;;;;;;;;;23.50;21.75;;;;;-147.17;100.00;59696.56;4993260;28;51197;-61
2021/07/01 06:01:54;;;;;;;;;19.25;18.00;;;;;-147.17;100.00;59696.56;4981530;28;51080;-60
2021/07/01 06:04:20;;;;;;;;;21.00;18.75;;;;;-147.17;100.00;59696.56;4987709;28;51313;-60
2021/07/01 06:06:49;;;;;;;;;26.75;25.00;;;;;-147.17;100.00;59696.56;4974923;28;51125;-60
2021/07/01 06:09:16;;;;;;;;;19.00;18.00;;;;;-147.17;100.00;59696.56;4974840;28;51015;-61
2021/07/01 06:11:42;;;;;;;;;16.33;16.33;;;;;-147.17;100.00;59696.56;4975179;28;51339;-60
2021/07/01 06:14:08;;;;;;;;;19.33;18.00;;;;;-147.17;100.00;59696.56;4975217;28;50943;-61
2021/07/01 06:16:35;;;;;;;;;18.33;17.33;;;;;-147.17;100.00;59696.56;4974777;28;51380;-60
2021/07/01 06:19:03;;;;;;;;;19.33;16.33;;;;;-147.17;100.00;59696.56;4973507;28;51156;-61
2021/07/01 06:21:29;;;;;;;;;16.33;16.00;;;;;-147.17;100.00;59696.56;4994199;28;50918;-61
2021/07/01 06:23:55;;;;;;;;;15.00;15.00;;;;;-147.17;100.00;59696.56;4994269;28;51007;-61
2021/07/01 06:26:27;;;;;;;;;12.33;12.00;;;;;-147.17;100.00;59696.56;4975336;28;51031;-59
2021/07/01 06:28:54;;;;;;;;;20.33;17.00;;;;;-147.17;100.00;59696.56;4983782;28;52845;-61
2021/07/01 06:31:20;;;;;;;;;15.00;14.33;;;;;-147.17;100.00;59696.56;4992230;28;51061;-60
2021/07/01 06:33:46;;;;;;;;;25.00;21.67;;;;;-147.17;100.00;59696.56;4984811;28;51098;-60
2021/07/01 06:36:13;;;;;;;;;11.00;11.00;;;;;-147.17;100.00;59696.56;4989060;28;51081;-60
2021/07/01 06:38:52;;;;;;;;;12.00;10.33;;;;;-147.17;100.00;59696.56;4986556;28;53626;-59
2021/07/01 06:41:19;;;;;;;;;16.00;15.33;;;;;-147.17;100.00;59696.56;4984370;28;51103;-59
2021/07/01 06:43:49;;;;;;;;;16.33;15.67;;;;;-147.17;100.00;59696.56;4956645;28;51034;-61
2021/07/01 06:46:19;;;;;;;;;14.00;12.33;;;;;-147.17;100.00;59696.56;4956801;28;51344;-60
2021/07/01 06:48:47;;;;;;;;;14.00;13.67;;;;;-147.17;100.00;59696.56;4973987;28;51006;-59
2021/07/01 06:51:13;;;;;;;;;13.00;13.00;;;;;-147.17;100.00;59696.56;4974253;28;51031;-58
2021/07/01 06:53:41;;;;;;;;;13.00;12.33;;;;;-147.17;100.00;59696.56;4973945;28;51042;-59
2021/07/01 06:56:07;;;;;;;;;9.33;8.33;;;;;-147.17;100.00;59696.56;4972998;28;51183;-59
2021/07/01 06:58:33;;;;;;;;;13.33;13.33;;;;;-147.17;100.00;59696.56;4974100;28;51932;-59
2021/07/01 07:00:58;;;;;;;;;12.00;11.00;;;;;-147.17;100.00;59696.56;4974967;28;51019;-60
2021/07/01 07:03:25;;;;;;;;;12.33;9.33;;;;;-147.17;100.00;59696.56;4993314;28;51066;-59
2021/07/01 07:05:52;;;;;;;;;13.00;13.00;;;;;-147.17;100.00;59696.56;4978619;28;51303;-60
2021/07/01 07:08:19;;;;;;;;;16.33;15.33;;;;;-147.17;100.00;59696.56;4972229;28;51807;-59
2021/07/01 07:10:45;;;;;;;;;12.33;12.00;;;;;-147.17;100.00;59696.56;4973447;28;51172;-60
2021/07/01 07:13:12;;;;;;;;;15.33;14.67;;;;;-147.17;100.00;59696.56;4956013;28;51089;-61
2021/07/01 07:15:38;;;;;;;;;15.67;14.67;;;;;-147.17;100.00;59696.56;4973804;28;51000;-61
2021/07/01 07:18:18;;;;;;;;;12.00;11.33;;;;;-147.17;100.00;59696.56;4974031;28;51804;-61
2021/07/01 07:20:46;;;;;;;;;14.33;14.00;;;;;-147.17;100.00;59696.56;4973345;28;51069;-59
2021/07/01 07:23:17;;;;;;;;;14.00;13.67;;;;;-147.17;100.00;59696.56;4956111;28;51198;-60
2021/07/01 07:25:43;;;;;;;;;18.00;18.00;;;;;-147.17;100.00;59696.56;4973165;28;51006;-60
2021/07/01 07:28:10;;;;;;;;;16.00;16.00;;;;;-147.17;100.00;59696.56;4982550;28;51809;-60
2021/07/01 07:30:37;;;;;;;;;17.00;15.33;;;;;-147.17;100.00;59696.56;4974959;28;51280;-60
2021/07/01 07:33:05;;;;;;;;;19.00;17.33;;;;;-147.17;100.00;59696.56;4991230;28;51029;-59
2021/07/01 07:35:32;;;;;;;;;16.33;15.00;;;;;-147.17;100.00;59696.56;4973562;28;51249;-61
2021/07/01 07:37:59;;;;;;;;;16.67;15.67;;;;;-147.17;100.00;59696.56;4989707;28;51179;-60
2021/07/01 07:40:26;;;;;;;;;13.33;13.33;;;;;-147.17;100.00;59696.56;4973286;28;51094;-59
2021/07/01 07:42:51;;;;;;;;;13.33;13.33;;;;;-147.17;100.00;59696.56;4973175;28;50882;-57
2021/07/01 07:45:16;;;;;;;;;16.00;15.33;;;;;-147.17;100.00;59696.56;4978071;28;50916;-59
2021/07/01 07:47:42;;;;;;;;;15.67;15.33;;;;;-147.17;100.00;59696.56;4992515;28;51788;-57
2021/07/01 07:50:10;;;;;;;;;19.00;18.33;;;;;-147.17;100.00;59696.56;4993022;28;50946;-56
2021/07/01 07:52:44;;;;;;;;;16.67;15.33;;;;;-147.17;100.00;59696.56;4992605;28;51079;-57
2021/07/01 07:55:10;;;;;;;;;18.00;17.00;;;;;-147.17;100.00;59696.56;4988351;28;51085;-58
2021/07/01 07:57:39;;;;;;;;;16.00;16.00;;;;;-147.17;100.00;59696.56;4988839;28;52096;-57
2021/07/01 08:00:05;;;;;;;;;19.00;19.00;;;;;-147.17;100.00;59696.56;4974438;28;51073;-56
2021/07/01 08:02:42;;;;;;;;;18.67;18.33;;;;;-147.17;100.00;59696.56;4992809;28;51091;-57
2021/07/01 08:05:08;;;;;;;;;19.00;18.33;;;;;-147.17;100.00;59696.56;4985408;28;51223;-57
2021/07/01 08:07:38;;;;;;;;;17.33;17.33;;;;;-147.17;100.00;59696.56;4954798;28;51647;-57
2021/07/01 08:10:13;;;;;;;;;19.33;18.33;;;;;-147.17;100.00;59696.56;4972316;28;51058;-57
2021/07/01 08:12:41;;;;;;;;;19.00;18.67;;;;;-147.17;100.00;59696.56;4967835;28;51364;-57
2021/07/01 08:15:12;;;;;;;;;21.75;20.75;;;;;-147.17;100.00;59696.56;4992369;28;51314;-57
2021/07/01 08:17:42;;;;;;;;;17.67;17.33;;;;;-147.17;100.00;59696.56;4990797;28;52949;-56
2021/07/01 08:20:10;;;;;;;;;19.67;18.33;;;;;-147.17;100.00;59696.56;4989206;28;51282;-57
2021/07/01 08:22:37;;;;;;;;;19.00;19.00;;;;;-147.17;100.00;59696.56;4992092;28;51186;-57
2021/07/01 08:25:03;;;;;;;;;22.67;21.33;;;;;-147.17;100.00;59696.56;4992041;28;51194;-57
2021/07/01 08:27:29;;;;;;;;;20.33;20.33;;;;;-147.17;100.00;59696.56;4974071;28;52573;-58
2021/07/01 08:29:56;;;;;;;;;19.00;18.33;;;;;-147.17;100.00;59696.56;4981796;28;51085;-57
2021/07/01 08:32:23;;;;;;;;;18.67;18.67;;;;;-147.17;100.00;59696.56;4972010;28;50968;-58
2021/07/01 08:34:49;;;;;;;;;17.67;17.00;;;;;-147.17;100.00;59696.56;4972558;28;51285;-57
2021/07/01 08:37:20;;;;;;;;;20.00;19.00;;;;;-147.17;100.00;59696.56;4973859;28;51821;-58
2021/07/01 08:39:45;;;;;;;;;21.00;20.00;;;;;-147.17;100.00;59696.56;4938470;28;51186;-58
2021/07/01 08:42:14;;;;;;;;;21.00;19.33;;;;;-147.17;100.00;59696.56;4971980;28;51133;-56
2021/07/01 08:44:44;;;;;;;;;21.33;21.33;;;;;-147.17;100.00;59696.56;4972335;28;51038;-57
2021/07/01 08:47:16;;;;;;;;;21.33;21.33;;;;;-147.17;100.00;59696.56;4971653;28;51987;-57
2021/07/01 08:49:55;;;;;;;;;17.00;17.00;;;;;-147.17;100.00;59696.56;4972120;28;51019;-55
2021/07/01 08:52:24;;;;;;;;;19.67;19.33;;;;;-147.17;100.00;59696.56;4980357;28;50962;-57
2021/07/01 08:54:56;;;;;;;;;19.00;19.00;;;;;-147.17;100.00;59696.56;4991510;28;51304;-57
2021/07/01 08:57:27;;;;;;;;;25.00;25.00;;;;;-147.17;100.00;59696.56;4977722;28;50907;-58
2021/07/01 09:00:00;;;;;;;;;18.33;17.67;;;;;-147.17;100.00;59696.56;4992137;28;51136;-57
2021/07/01 09:02:38;;;;;;;;;21.00;19.00;;;;;-147.17;100.00;59696.56;4991881;28;50910;-57
2021/07/01 09:05:16;;;;;;;;;22.33;21.00;;;;;-147.17;100.00;59696.56;4990328;28;50949;-58
2021/07/01 09:07:52;;;;;;;;;20.00;20.00;;;;;-147.17;100.00;59696.56;4991262;28;51958;-57
2021/07/01 09:10:20;;;;;;;;;22.00;22.00;;;;;-147.17;100.00;59696.56;4990983;28;51037;-57
2021/07/01 09:12:54;;;;;;;;;23.67;22.00;;;;;-147.17;100.00;59696.56;4991756;28;51084;-58
2021/07/01 09:15:20;;;;;;;;;25.00;24.33;;;;;-147.17;100.00;59696.56;4991865;28;50929;-57
2021/07/01 09:17:48;;;;;;;;;24.00;23.00;;;;;-147.17;100.00;59696.56;4991216;28;51997;-58
2021/07/01 09:20:20;;;;;;;;;25.33;23.33;;;;;-147.17;100.00;59696.56;4991319;28;51104;-58
2021/07/01 09:22:50;;;;;;;;;21.67;20.33;;;;;-147.17;100.00;59696.56;4991068;28;50939;-58
2021/07/01 09:25:17;;;;;;;;;21.00;21.00;;;;;-147.17;100.00;59696.56;4991167;28;50872;-58
2021/07/01 09:27:46;;;;;;;;;24.33;23.33;;;;;-147.17;100.00;59696.56;4991226;28;51247;-58
2021/07/01 09:30:14;;;;;;;;;13.33;13.33;;;;;-147.17;100.00;59696.56;4991328;28;51095;-56
2021/07/01 09:32:41;;;;;;;;;22.67;22.67;;;;;-147.17;100.00;59696.56;4994690;28;51037;-57
2021/07/01 09:35:08;;;;;;;;;22.33;21.33;;;;;-147.17;100.00;59696.56;4994659;28;50951;-58
2021/07/01 09:37:46;;;;;;;;;17.67;17.33;;;;;-147.17;100.00;59696.56;5001444;28;51801;-58
2021/07/01 09:40:14;;;;;;;;;25.33;23.67;;;;;-147.17;100.00;59696.56;4976418;28;51148;-59
2021/07/01 09:42:40;;;;;;;;;22.67;21.33;;;;;-147.17;100.00;59696.56;4975012;28;50994;-59
2021/07/01 09:45:11;;;;;;;;;22.67;22.00;;;;;-147.17;100.00;59696.56;4974992;28;51002;-58
2021/07/01 09:47:41;;;;;;;;;24.00;23.00;;;;;-147.17;100.00;59696.56;4957231;28;51050;-57
2021/07/01 09:50:08;;;;;;;;;25.33;24.33;;;;;-147.17;100.00;59696.56;4981998;28;50985;-58
2021/07/01 09:52:39;;;;;;;;;25.00;24.00;;;;;-147.17;100.00;59696.56;4994615;28;50982;-58
2021/07/01 09:55:05;;;;;;;;;23.25;22.75;;;;;-147.17;100.00;59696.56;4993895;28;51157;-58
2021/07/01 09:57:35;;;;;;;;;24.67;23.67;;;;;-147.17;100.00;59696.56;4975636;28;52184;-58
2021/07/01 10:00:08;;;;;;;;;23.50;23.50;;;;;-147.17;100.00;59696.56;4994467;28;51034;-58
2021/07/01 10:02:34;;;;;;;;;23.00;21.33;;;;;-147.17;100.00;59696.56;4994138;28;51095;-58
2021/07/01 10:04:59;;;;;;;;;27.00;26.50;;;;;-147.17;100.00;59696.56;4984693;28;50944;-57
2021/07/01 10:07:26;;;;;;;;;25.67;25.00;;;;;-147.17;100.00;59696.56;4974220;28;52071;-59
2021/07/01 10:09:57;;;;;;;;;28.00;26.25;;;;;-147.17;100.00;59696.56;4974674;28;51066;-58
2021/07/01 10:12:23;;;;;;;;;27.67;26.00;;;;;-147.17;100.00;59696.56;4973890;28;50935;-57
2021/07/01 10:14:51;;;;;;;;;25.50;24.50;;;;;-147.17;100.00;59696.56;4974486;28;51025;-58
2021/07/01 10:17:19;;;;;;;;;27.67;27.00;;;;;-147.17;100.00;59696.56;4973468;28;51138;-58
2021/07/01 10:19:45;;;;;;;;;25.50;24.75;;;;;-147.17;100.00;59696.56;4973721;28;51075;-58
2021/07/01 10:22:18;;;;;;;;;28.00;28.00;;;;;-147.17;100.00;59696.56;4973921;28;50968;-57
2021/07/01 10:24:57;;;;;;;;;25.00;23.33;;;;;-147.17;100.00;59696.56;4974069;28;51023;-57
2021/07/01 10:27:42;;;;;;;;;27.00;25.33;;;;;-147.17;100.00;59696.56;4980869;28;52110;-57
2021/07/01 10:30:25;;;;;;;;;25.50;23.50;;;;;-147.17;100.00;59696.56;4993476;28;51017;-56
2021/07/01 10:32:56;;;;;;;;;25.00;24.00;;;;;-147.17;100.00;59696.56;4977203;28;51018;-57
2021/07/01 10:35:39;;;;;;;;;23.00;22.75;;;;;-147.17;100.00;59696.56;4994628;28;51193;-56
2021/07/01 10:38:13;;;;;;;;;24.00;23.00;;;;;-147.17;100.00;59696.56;4999717;28;52002;-58
2021/07/01 10:40:43;;;;;;;;;23.67;22.33;;;;;-147.17;100.00;59696.56;4973612;28;51034;-58
2021/07/01 10:43:08;;;;;;;;;23.33;23.00;;;;;-147.17;100.00;59696.56;4973815;28;51082;-57
2021/07/01 10:45:34;;;;;;;;;23.33;22.33;;;;;-147.17;100.00;59696.56;4956400;28;51159;-58
2021/07/01 10:48:12;;;;;;;;;27.33;25.67;;;;;-147.17;100.00;59696.56;4973300;28;52042;-57
2021/07/01 10:50:38;;;;;;;;;28.50;27.00;;;;;-147.17;100.00;59696.56;4973605;28;51052;-56
2021/07/01 10:53:24;;;;;;;;;26.75;26.00;;;;;-147.17;100.00;59696.56;4972896;28;50946;-57
2021/07/01 10:55:50;;;;;;;;;26.67;26.33;;;;;-147.17;100.00;59696.56;4986255;28;51123;-56
2021/07/01 10:58:17;;;;;;;;;31.00;30.00;;;;;-147.17;100.00;59696.56;4973027;28;51844;-58